Time;durP1;ratioP1;P1;durP2;ratioP2;P2;SDS_P1;SDS_P2;PMS_P1;PMS_P2;Temp;Humidity;BMP_temperature;BMP_pressure;BME280_temperature;BME280_humidity;BME280_pressure;Samples;Min_cycle;Max_cycle;Signal;HPM_P1;HPM_P2
2021/04/12 00:02:23;;;;;;;9.98;7.78;;;4.60;97.70;;;;;;6287451;22;20165;-81
2021/04/12 00:04:56;;;;;;;9.50;8.38;;;4.70;98.10;;;;;;6285047;22;20550;-81
2021/04/12 00:07:30;;;;;;;9.18;7.10;;;4.70;98.40;;;;;;6289411;22;20158;-80
2021/04/12 00:10:05;;;;;;;8.30;6.65;;;4.70;98.40;;;;;;6288492;22;20205;-81
2021/04/12 00:12:38;;;;;;;7.38;6.57;;;4.70;97.70;;;;;;6283269;22;20169;-80
2021/04/12 00:15:10;;;;;;;9.77;7.80;;;4.70;97.80;;;;;;6278226;22;20177;-78
2021/04/12 00:17:42;;;;;;;12.52;8.05;;;4.70;97.40;;;;;;6287562;22;20176;-80
2021/04/12 00:20:20;;;;;;;8.90;7.38;;;4.60;97.20;;;;;;6289195;22;20198;-81
2021/04/12 00:22:52;;;;;;;8.32;6.97;;;4.60;96.80;;;;;;6286057;22;20177;-79
2021/04/12 00:25:25;;;;;;;10.05;6.65;;;4.60;96.70;;;;;;6283687;22;20165;-81
2021/04/12 00:27:56;;;;;;;9.98;8.30;;;4.60;96.70;;;;;;6285657;22;20238;-80
2021/04/12 00:30:26;;;;;;;8.95;7.93;;;4.60;96.50;;;;;;6285338;22;20212;-80
2021/04/12 00:32:58;;;;;;;7.53;6.30;;;4.60;96.70;;;;;;6284175;22;20673;-81
2021/04/12 00:35:31;;;;;;;9.32;6.90;;;4.60;95.90;;;;;;6291494;22;20172;-82
2021/04/12 00:38:07;;;;;;;8.35;6.65;;;4.50;95.00;;;;;;6297072;22;20161;-79
2021/04/12 00:40:43;;;;;;;7.75;6.53;;;4.50;95.00;;;;;;6283542;22;20193;-79
2021/04/12 00:43:19;;;;;;;9.63;6.93;;;4.50;95.00;;;;;;6290645;22;20161;-80
2021/04/12 00:46:23;;;;;;;8.98;7.43;;;4.50;95.00;;;;;;6282635;22;20215;-81
2021/04/12 00:49:13;;;;;;;7.30;6.03;;;4.40;95.00;;;;;;6287735;22;20250;-81
2021/04/12 00:51:59;;;;;;;8.27;6.25;;;4.40;94.80;;;;;;6288361;22;20276;-80
2021/04/12 00:54:58;;;;;;;8.32;5.72;;;4.30;94.00;;;;;;6282375;22;20187;-80
2021/04/12 00:57:40;;;;;;;7.10;6.25;;;4.20;94.00;;;;;;6222386;22;20220;-80
2021/04/12 01:00:11;;;;;;;7.13;6.30;;;4.30;94.30;;;;;;6283252;22;20256;-80
2021/04/12 01:02:50;;;;;;;7.07;6.10;;;4.30;93.90;;;;;;6279731;22;20630;-80
2021/04/12 01:05:41;;;;;;;6.25;5.65;;;4.30;93.90;;;;;;6292841;22;20154;-80
2021/04/12 01:08:37;;;;;;;8.75;6.65;;;4.30;93.60;;;;;;6294775;22;20188;-77
2021/04/12 01:11:31;;;;;;;7.90;5.78;;;4.20;93.10;;;;;;6288258;22;20223;-79
2021/04/12 01:14:26;;;;;;;6.60;4.93;;;4.30;93.10;;;;;;6285968;22;20154;-79
2021/04/12 01:17:25;;;;;;;10.68;5.97;;;4.20;93.10;;;;;;6226848;22;20206;-80
2021/04/12 01:20:22;;;;;;;5.75;4.75;;;4.10;93.00;;;;;;6181296;22;20266;-80
2021/04/12 01:23:26;;;;;;;8.25;5.45;;;4.20;93.10;;;;;;6284519;22;20177;-79
2021/04/12 01:26:25;;;;;;;6.20;5.40;;;4.20;93.80;;;;;;6297227;22;20172;-79
2021/04/12 01:29:43;;;;;;;9.80;5.70;;;4.20;93.20;;;;;;6288454;22;20181;-80
2021/04/12 01:33:06;;;;;;;8.30;5.80;;;4.20;93.40;;;;;;6288777;22;20185;-80
2021/04/12 01:35:42;;;;;;;8.45;5.97;;;4.20;93.10;;;;;;6161466;23;20183;-81
2021/04/12 01:38:27;;;;;;;5.45;4.95;;;4.10;93.50;;;;;;6284994;22;20222;-80
2021/04/12 01:41:13;;;;;;;6.25;5.13;;;4.10;93.50;;;;;;6293311;22;20239;-81
2021/04/12 01:44:03;;;;;;;6.47;5.07;;;4.10;93.00;;;;;;6290127;22;20164;-80
2021/04/12 01:46:34;;;;;;;6.35;5.60;;;4.10;93.00;;;;;;6287487;22;20188;-80
2021/04/12 01:49:06;;;;;;;5.68;4.65;;;4.10;93.00;;;;;;6293014;22;20187;-79
2021/04/12 01:52:14;;;;;;;11.23;6.30;;;4.10;93.00;;;;;;6300838;22;20192;-77
2021/04/12 01:54:55;;;;;;;7.85;5.60;;;4.10;93.10;;;;;;6184112;22;20171;-79
2021/04/12 01:57:40;;;;;;;7.82;5.95;;;4.10;93.10;;;;;;6301518;22;20161;-82
2021/04/12 02:00:32;;;;;;;10.43;6.30;;;4.10;93.00;;;;;;6287205;22;20208;-81
2021/04/12 02:03:11;;;;;;;10.65;6.40;;;4.10;93.00;;;;;;6283725;22;20166;-81
2021/04/12 02:06:08;;;;;;;8.15;5.72;;;4.00;92.90;;;;;;6282240;22;20173;-79
2021/04/12 02:08:41;;;;;;;8.05;6.15;;;4.00;93.00;;;;;;6288188;22;20188;-80
2021/04/12 02:11:26;;;;;;;6.63;5.93;;;4.10;93.50;;;;;;6299877;22;20212;-79
2021/04/12 02:14:29;;;;;;;10.95;7.40;;;4.00;93.00;;;;;;6303514;22;20153;-82
2021/04/12 02:17:04;;;;;;;8.70;7.07;;;4.00;93.10;;;;;;6301457;22;20153;-81
2021/04/12 02:19:52;;;;;;;13.27;8.30;;;4.00;93.10;;;;;;6298642;22;20169;-80
2021/04/12 02:22:54;;;;;;;9.13;6.82;;;4.00;94.00;;;;;;6294416;22;20195;-80
2021/04/12 02:25:36;;;;;;;13.05;8.38;;;3.90;93.90;;;;;;6302832;22;20157;-81
2021/04/12 02:28:40;;;;;;;9.65;7.25;;;3.90;94.20;;;;;;6303979;22;20153;-81
2021/04/12 02:31:21;;;;;;;12.68;9.23;;;3.90;94.80;;;;;;6302926;22;20200;-79
2021/04/12 02:33:58;;;;;;;8.60;6.90;;;3.90;95.10;;;;;;6303622;22;20172;-79
2021/04/12 02:36:46;;;;;;;12.60;8.73;;;3.90;95.80;;;;;;6304068;22;20150;-81
2021/04/12 02:39:25;;;;;;;9.10;7.75;;;3.80;95.10;;;;;;6303133;22;20162;-78
2021/04/12 02:42:07;;;;;;;11.52;8.70;;;3.80;95.40;;;;;;6292576;22;20162;-80
2021/04/12 02:44:54;;;;;;;12.88;8.32;;;3.80;95.70;;;;;;6291579;22;20214;-81
2021/04/12 02:47:37;;;;;;;9.40;7.03;;;3.90;96.30;;;;;;6283942;22;20170;-79
2021/04/12 02:50:17;;;;;;;11.48;8.15;;;3.80;96.30;;;;;;6284420;22;20197;-79
2021/04/12 02:52:58;;;;;;;11.57;8.00;;;3.70;95.50;;;;;;6289418;22;20590;-81
2021/04/12 02:55:54;;;;;;;9.52;7.35;;;3.70;96.00;;;;;;6285664;22;20451;-80
2021/04/12 02:58:57;;;;;;;9.20;6.53;;;3.70;96.00;;;;;;6295280;22;20174;-79
2021/04/12 03:01:56;;;;;;;10.43;6.68;;;3.70;96.30;;;;;;6289023;22;20200;-79
2021/04/12 03:04:43;;;;;;;7.45;5.90;;;3.60;96.40;;;;;;6281345;22;20165;-81
2021/04/12 03:07:40;;;;;;;11.02;7.10;;;3.50;95.90;;;;;;6281901;22;20299;-79
2021/04/12 03:10:39;;;;;;;10.55;6.18;;;3.50;96.30;;;;;;6280550;22;20540;-80
2021/04/12 03:13:41;;;;;;;9.55;7.65;;;3.50;96.30;;;;;;6277170;22;20181;-80
2021/04/12 03:16:40;;;;;;;10.25;6.10;;;3.40;96.30;;;;;;6275632;22;20212;-80
2021/04/12 03:19:29;;;;;;;10.45;6.05;;;3.40;96.30;;;;;;6280480;22;20219;-82
2021/04/12 03:22:19;;;;;;;10.55;5.65;;;3.40;96.30;;;;;;6292131;22;20162;-80
2021/04/12 03:25:20;;;;;;;9.27;6.35;;;3.40;96.30;;;;;;6302463;22;20213;-81
2021/04/12 03:28:21;;;;;;;6.65;5.00;;;3.40;96.30;;;;;;6296622;22;20169;-79
2021/04/12 03:31:14;;;;;;;6.28;5.20;;;3.40;96.70;;;;;;6279746;22;20205;-83
2021/04/12 03:34:08;;;;;;;7.57;6.10;;;3.40;96.90;;;;;;6295765;22;20228;-80
2021/04/12 03:36:55;;;;;;;7.38;5.55;;;3.40;96.80;;;;;;6297004;22;20177;-81
2021/04/12 03:39:25;;;;;;;9.18;6.15;;;3.40;97.20;;;;;;6296505;22;20166;-81
2021/04/12 03:42:03;;;;;;;6.43;4.65;;;3.40;96.60;;;;;;6294664;22;20161;-80
2021/04/12 03:44:52;;;;;;;10.60;5.53;;;3.40;96.40;;;;;;6300606;22;20157;-80
2021/04/12 03:47:41;;;;;;;5.90;5.32;;;3.40;96.30;;;;;;6294486;22;20172;-79
2021/04/12 03:50:55;;;;;;;7.00;6.30;;;3.30;95.80;;;;;;6295843;22;20205;-81
2021/04/12 03:54:05;;;;;;;8.52;5.65;;;3.30;96.20;;;;;;6299833;22;20245;-83
2021/04/12 03:56:59;;;;;;;8.98;6.53;;;3.30;96.10;;;;;;6271605;22;20169;-82
2021/04/12 03:59:40;;;;;;;7.70;5.93;;;3.30;96.20;;;;;;6301547;22;20196;-82
2021/04/12 04:02:37;;;;;;;9.27;6.25;;;3.20;96.20;;;;;;6301045;22;20165;-81
2021/04/12 04:05:35;;;;;;;8.82;6.32;;;3.30;96.30;;;;;;6297256;22;20177;-81
2021/04/12 04:08:24;;;;;;;7.47;6.35;;;3.20;96.70;;;;;;6291295;22;20169;-79
2021/04/12 04:11:29;;;;;;;8.30;6.55;;;3.30;97.00;;;;;;6301475;22;20201;-82
2021/04/12 04:14:28;;;;;;;11.50;6.68;;;3.30;96.90;;;;;;6297302;22;20158;-81
2021/04/12 04:17:17;;;;;;;8.07;6.50;;;3.20;96.20;;;;;;6303506;22;20169;-80
2021/04/12 04:19:57;;;;;;;10.43;6.05;;;3.30;96.40;;;;;;6298787;22;20525;-80
2021/04/12 04:22:47;;;;;;;9.32;6.55;;;3.30;96.40;;;;;;6290399;22;20173;-80
2021/04/12 04:25:50;;;;;;;10.85;6.80;;;3.30;96.50;;;;;;6290400;22;20541;-80
2021/04/12 04:29:00;;;;;;;11.02;6.47;;;3.30;96.40;;;;;;6290396;22;20177;-81
2021/04/12 04:31:58;;;;;;;9.55;6.97;;;3.30;96.20;;;;;;6295766;22;20211;-81
2021/04/12 04:34:32;;;;;;;8.68;6.57;;;3.30;96.00;;;;;;6293070;22;20196;-81
2021/04/12 04:37:29;;;;;;;7.22;5.75;;;3.30;95.90;;;;;;6294298;22;20340;-79
2021/04/12 04:40:32;;;;;;;10.52;7.22;;;3.40;95.20;;;;;;6296427;22;20197;-81
2021/04/12 04:43:44;;;;;;;10.40;6.70;;;3.30;94.80;;;;;;6246638;22;20206;-81
2021/04/12 04:46:20;;;;;;;9.50;6.90;;;3.30;94.50;;;;;;6296016;22;20161;-80
2021/04/12 04:49:08;;;;;;;7.70;5.82;;;3.30;94.20;;;;;;6290338;22;20222;-78
2021/04/12 04:51:59;;;;;;;8.75;6.35;;;3.30;94.10;;;;;;6286864;22;20201;-79
2021/04/12 04:54:43;;;;;;;8.35;6.70;;;3.30;93.40;;;;;;6282194;22;20192;-80
2021/04/12 04:57:42;;;;;;;9.70;6.70;;;3.40;93.50;;;;;;6282557;22;20185;-80
2021/04/12 05:00:25;;;;;;;8.93;6.63;;;3.40;93.00;;;;;;6282757;22;20272;-78
2021/04/12 05:03:11;;;;;;;8.27;6.10;;;3.30;92.70;;;;;;6285063;22;20188;-81
2021/04/12 05:05:50;;;;;;;7.53;6.10;;;3.30;92.70;;;;;;6284403;22;20154;-79
2021/04/12 05:08:49;;;;;;;8.43;6.68;;;3.40;92.80;;;;;;6291312;22;20565;-79
2021/04/12 05:11:42;;;;;;;8.52;6.45;;;3.40;92.80;;;;;;6283291;22;20201;-78
2021/04/12 05:14:32;;;;;;;12.45;8.05;;;3.50;92.80;;;;;;6287503;22;20162;-78
2021/04/12 05:17:27;;;;;;;9.93;7.22;;;3.60;93.40;;;;;;6289160;22;20265;-78
2021/04/12 05:20:08;;;;;;;9.48;6.35;;;3.70;93.70;;;;;;6271269;22;20205;-79
2021/04/12 05:22:48;;;;;;;7.13;5.60;;;3.80;93.70;;;;;;6287794;22;20195;-79
2021/04/12 05:25:28;;;;;;;7.25;5.95;;;3.90;93.50;;;;;;6291902;22;20214;-79
2021/04/12 05:28:13;;;;;;;7.45;6.65;;;4.00;93.00;;;;;;6297945;22;20157;-77
2021/04/12 05:31:10;;;;;;;8.18;6.72;;;4.00;93.10;;;;;;6297646;22;20204;-79
2021/04/12 05:33:49;;;;;;;8.55;6.75;;;4.00;93.40;;;;;;6299137;22;20169;-78
2021/04/12 05:36:42;;;;;;;9.40;6.60;;;4.10;93.70;;;;;;6300925;22;20181;-78
2021/04/12 05:39:27;;;;;;;8.98;6.90;;;4.20;93.80;;;;;;6300754;22;20164;-79
2021/04/12 05:42:27;;;;;;;9.63;6.20;;;4.20;93.60;;;;;;6300623;22;20180;-76
2021/04/12 05:45:20;;;;;;;8.02;6.90;;;4.20;93.10;;;;;;6231944;22;20169;-77
2021/04/12 05:48:12;;;;;;;11.05;7.53;;;4.20;92.80;;;;;;6300965;22;20165;-78
2021/04/12 05:51:01;;;;;;;10.55;8.48;;;4.20;92.90;;;;;;6298512;22;20219;-79
2021/04/12 05:53:51;;;;;;;12.93;8.57;;;4.10;92.60;;;;;;6297450;22;20188;-78
2021/04/12 05:56:29;;;;;;;11.85;8.48;;;4.10;92.20;;;;;;6299556;22;20193;-78
2021/04/12 05:59:18;;;;;;;9.55;7.55;;;4.30;92.10;;;;;;6302250;22;20243;-78
2021/04/12 06:02:06;;;;;;;10.25;7.15;;;4.30;91.70;;;;;;6298415;22;20272;-78
2021/04/12 06:04:44;;;;;;;13.25;8.70;;;4.40;91.60;;;;;;6298488;22;20215;-77
2021/04/12 06:07:45;;;;;;;14.57;10.05;;;4.40;91.30;;;;;;6297509;22;20181;-78
2021/04/12 06:10:45;;;;;;;12.32;8.68;;;4.40;91.00;;;;;;6297186;22;20189;-78
2021/04/12 06:13:40;;;;;;;12.43;8.82;;;4.50;91.00;;;;;;6298550;22;20166;-78
2021/04/12 06:16:48;;;;;;;10.15;8.00;;;4.60;90.60;;;;;;6299893;22;20166;-78
2021/04/12 06:19:52;;;;;;;10.02;7.88;;;4.80;90.20;;;;;;6297230;22;20166;-78
2021/04/12 06:22:49;;;;;;;10.38;7.90;;;4.80;88.60;;;;;;6286817;22;20245;-80
2021/04/12 06:25:42;;;;;;;9.82;7.85;;;4.90;87.50;;;;;;6285961;22;20231;-78
2021/04/12 06:28:58;;;;;;;11.27;7.70;;;5.10;85.60;;;;;;6288579;22;20225;-79
2021/04/12 06:32:18;;;;;;;9.68;7.30;;;5.30;83.40;;;;;;6295305;22;20201;-79
2021/04/12 06:35:26;;;;;;;10.55;8.05;;;5.50;81.80;;;;;;6299886;22;20211;-78
2021/04/12 06:38:05;;;;;;;9.23;7.55;;;5.50;80.40;;;;;;6300625;22;20182;-77
2021/04/12 06:41:10;;;;;;;8.77;7.60;;;5.50;79.50;;;;;;6299070;22;20208;-77
2021/04/12 06:44:15;;;;;;;9.70;8.02;;;5.30;78.40;;;;;;6170460;22;20183;-77
2021/04/12 06:47:32;;;;;;;12.05;8.60;;;5.40;81.70;;;;;;6282943;22;20197;-79
2021/04/12 06:50:23;;;;;;;13.18;9.90;;;5.50;81.80;;;;;;6163835;23;20456;-79
2021/04/12 06:53:34;;;;;;;11.60;9.40;;;5.40;81.70;;;;;;6288559;22;20180;-81
2021/04/12 06:56:43;;;;;;;12.80;9.38;;;5.50;81.80;;;;;;6290864;22;20203;-78
2021/04/12 06:59:39;;;;;;;11.25;8.50;;;5.50;80.70;;;;;;6291920;22;20181;-82
2021/04/12 07:02:40;;;;;;;12.60;8.85;;;5.60;81.30;;;;;;6229427;22;20180;-81
2021/04/12 07:05:28;;;;;;;13.13;8.90;;;5.80;80.40;;;;;;6280436;22;20181;-76
2021/04/12 07:08:20;;;;;;;10.82;8.68;;;5.80;77.90;;;;;;6300328;22;20195;-78
2021/04/12 07:11:28;;;;;;;12.13;8.05;;;5.90;77.20;;;;;;6288470;22;20224;-77
2021/04/12 07:14:38;;;;;;;13.82;8.90;;;5.90;77.20;;;;;;6285521;22;20185;-76
2021/04/12 07:17:40;;;;;;;11.15;8.60;;;6.10;75.20;;;;;;6288781;22;20182;-76
2021/04/12 07:20:39;;;;;;;10.98;9.32;;;6.10;74.00;;;;;;6284355;22;20530;-77
2021/04/12 07:23:34;;;;;;;10.68;8.70;;;6.20;72.10;;;;;;6288159;22;20172;-79
2021/04/12 07:26:27;;;;;;;13.40;8.35;;;6.20;71.80;;;;;;6280778;22;20182;-77
2021/04/12 07:29:31;;;;;;;12.77;8.38;;;6.30;72.30;;;;;;6286360;22;20548;-77
2021/04/12 07:32:49;;;;;;;11.43;8.80;;;6.20;73.00;;;;;;6291990;22;20566;-77
2021/04/12 07:35:35;;;;;;;12.60;9.15;;;6.40;73.70;;;;;;6290166;22;20283;-77
2021/04/12 07:38:34;;;;;;;10.27;7.55;;;6.60;72.10;;;;;;6293060;22;20694;-77
2021/04/12 07:41:35;;;;;;;13.50;8.90;;;6.70;70.70;;;;;;6287366;22;20624;-78
2021/04/12 07:44:46;;;;;;;11.07;8.32;;;6.80;70.00;;;;;;6248746;22;20207;-76
2021/04/12 07:48:01;;;;;;;10.80;8.95;;;6.70;67.90;;;;;;6293611;22;20178;-77
2021/04/12 07:51:00;;;;;;;11.73;9.60;;;6.70;65.70;;;;;;6167123;23;20215;-78
2021/04/12 07:54:11;;;;;;;11.15;7.88;;;6.90;63.60;;;;;;6145347;23;20203;-77
2021/04/12 07:57:32;;;;;;;12.57;7.80;;;6.90;61.50;;;;;;6277289;22;20242;-79
2021/04/12 08:00:41;;;;;;;11.88;8.30;;;7.10;60.50;;;;;;6238997;22;20234;-79
2021/04/12 08:03:46;;;;;;;8.63;7.45;;;7.00;59.10;;;;;;6282172;22;20177;-79
2021/04/12 08:07:08;;;;;;;11.70;8.77;;;7.10;60.70;;;;;;6283997;22;20176;-80
2021/04/12 08:10:22;;;;;;;10.38;8.80;;;7.20;60.40;;;;;;6283921;22;20176;-81
2021/04/12 08:13:19;;;;;;;12.35;7.90;;;7.30;61.60;;;;;;6290031;22;20161;-79
2021/04/12 08:16:19;;;;;;;10.40;8.77;;;7.20;59.70;;;;;;6286442;22;20658;-79
2021/04/12 08:19:14;;;;;;;10.10;8.20;;;7.00;61.10;;;;;;6291776;22;20173;-76
2021/04/12 08:22:40;;;;;;;10.85;8.55;;;6.90;61.10;;;;;;6293943;22;20213;-78
2021/04/12 08:25:37;;;;;;;10.48;7.85;;;6.80;57.90;;;;;;6293844;22;20181;-79
2021/04/12 08:28:55;;;;;;;9.50;7.75;;;6.70;57.30;;;;;;6286140;22;20184;-79
2021/04/12 08:32:32;;;;;;;7.40;5.93;;;6.80;56.90;;;;;;6161169;23;20196;-78
2021/04/12 08:35:48;;;;;;;8.27;5.82;;;7.00;50.10;;;;;;6161365;23;20660;-79
2021/04/12 08:38:50;;;;;;;8.38;3.95;;;7.00;46.40;;;;;;6259166;22;20189;-78
2021/04/12 08:41:54;;;;;;;5.28;4.50;;;6.80;42.60;;;;;;6286672;22;20223;-78
2021/04/12 08:45:01;;;;;;;7.00;4.43;;;6.90;43.10;;;;;;6258163;22;20207;-79
2021/04/12 08:48:12;;;;;;;6.78;4.55;;;6.80;45.30;;;;;;6282570;22;20215;-77
2021/04/12 08:51:07;;;;;;;6.75;4.40;;;7.30;42.90;;;;;;6281067;22;20643;-78
2021/04/12 08:54:08;;;;;;;4.65;3.63;;;7.60;42.70;;;;;;6288304;22;20211;-77
2021/04/12 08:56:43;;;;;;;4.90;3.00;;;7.70;39.60;;;;;;6225792;22;20182;-78
2021/04/12 08:59:51;;;;;;;6.25;4.00;;;7.80;38.60;;;;;;6291344;22;20157;-78
2021/04/12 09:02:51;;;;;;;4.40;3.38;;;7.70;38.50;;;;;;6196370;22;20177;-77
2021/04/12 09:05:45;;;;;;;9.45;3.50;;;7.50;36.10;;;;;;6254734;22;20189;-77
2021/04/12 09:08:33;;;;;;;3.97;2.75;;;7.80;38.60;;;;;;6279498;22;20161;-77
2021/04/12 09:11:11;;;;;;;4.80;3.25;;;7.70;35.20;;;;;;6222589;22;20201;-77
2021/04/12 09:14:21;;;;;;;4.00;3.13;;;7.70;36.10;;;;;;6286067;22;20165;-78
2021/04/12 09:17:09;;;;;;;5.18;2.08;;;7.80;38.40;;;;;;6283871;22;20173;-77
2021/04/12 09:19:58;;;;;;;3.80;1.38;;;8.00;29.20;;;;;;6294438;22;20165;-77
2021/04/12 09:23:01;;;;;;;4.93;2.05;;;8.30;29.30;;;;;;6281336;22;20168;-78
2021/04/12 09:26:06;;;;;;;3.15;1.90;;;8.20;31.10;;;;;;6277894;22;20192;-78
2021/04/12 09:28:58;;;;;;;6.63;2.53;;;8.80;32.20;;;;;;6278278;22;20223;-79
2021/04/12 09:31:58;;;;;;;3.28;2.60;;;8.70;32.80;;;;;;6279419;22;20200;-77
2021/04/12 09:35:04;;;;;;;3.75;2.45;;;8.90;32.30;;;;;;6251850;22;20181;-78
2021/04/12 09:38:02;;;;;;;2.40;2.20;;;8.50;31.80;;;;;;6280409;22;20174;-79
2021/04/12 09:41:05;;;;;;;5.22;2.65;;;8.00;32.30;;;;;;6278959;22;20565;-78
2021/04/12 09:44:11;;;;;;;5.50;2.20;;;7.70;32.60;;;;;;6279340;22;20157;-78
2021/04/12 09:47:16;;;;;;;2.53;1.80;;;7.90;32.80;;;;;;6281831;22;20168;-79
2021/04/12 09:50:12;;;;;;;5.88;2.40;;;8.10;30.10;;;;;;6284308;22;20197;-78
2021/04/12 09:52:51;;;;;;;3.33;2.00;;;8.20;30.40;;;;;;6247615;22;20397;-78
2021/04/12 09:56:07;;;;;;;1.85;1.75;;;8.40;30.00;;;;;;6285115;22;20541;-78
2021/04/12 09:59:20;;;;;;;3.00;2.25;;;8.60;29.50;;;;;;6228590;22;20184;-77
2021/04/12 10:02:23;;;;;;;4.30;2.70;;;8.30;28.70;;;;;;6285865;22;20185;-77
2021/04/12 10:05:08;;;;;;;2.20;2.00;;;8.10;29.10;;;;;;6280065;22;20157;-76
2021/04/12 10:07:58;;;;;;;2.45;1.20;;;8.40;27.50;;;;;;6278574;22;20166;-75
2021/04/12 10:10:28;;;;;;;3.17;1.80;;;9.00;26.40;;;;;;6278556;22;20205;-76
2021/04/12 10:13:11;;;;;;;3.25;1.80;;;9.50;25.90;;;;;;6279144;22;20165;-77
2021/04/12 10:15:44;;;;;;;2.55;1.90;;;8.90;27.60;;;;;;6280066;22;20167;-77
2021/04/12 10:18:20;;;;;;;2.95;1.40;;;9.10;28.00;;;;;;6279447;22;20685;-75
2021/04/12 10:20:55;;;;;;;2.03;1.83;;;8.80;27.20;;;;;;6278009;22;20197;-76
2021/04/12 10:23:27;;;;;;;2.85;1.85;;;8.60;27.70;;;;;;6277074;22;20169;-76
2021/04/12 10:26:01;;;;;;;4.00;2.33;;;8.70;27.40;;;;;;6277117;22;20295;-76
2021/04/12 10:28:31;;;;;;;3.13;1.90;;;9.00;27.70;;;;;;6278823;22;20607;-79
2021/04/12 10:31:07;;;;;;;4.13;1.75;;;9.30;26.50;;;;;;6280705;22;20225;-76
2021/04/12 10:33:43;;;;;;;1.58;1.48;;;9.90;26.40;;;;;;6282887;22;20161;-77
2021/04/12 10:36:23;;;;;;;4.50;1.65;;;10.00;22.40;;;;;;6285179;22;20176;-75
2021/04/12 10:38:58;;;;;;;2.92;1.58;;;9.70;23.90;;;;;;6286394;22;20166;-76
2021/04/12 10:41:28;;;;;;;3.83;1.80;;;8.80;23.80;;;;;;6285811;22;20196;-78
2021/04/12 10:43:59;;;;;;;2.00;1.80;;;9.00;24.70;;;;;;6284208;22;20200;-77
2021/04/12 10:46:32;;;;;;;1.60;1.50;;;9.60;24.30;;;;;;6286223;22;20157;-76
2021/04/12 10:49:07;;;;;;;3.97;1.80;;;10.00;23.00;;;;;;6299522;22;20169;-77
2021/04/12 10:51:44;;;;;;;2.22;1.65;;;10.30;21.90;;;;;;6300312;22;20200;-77
2021/04/12 10:54:52;;;;;;;2.47;1.40;;;9.80;22.30;;;;;;6301716;22;20149;-76
2021/04/12 10:57:48;;;;;;;2.95;2.00;;;9.80;23.10;;;;;;6293831;22;20162;-77
2021/04/12 11:00:45;;;;;;;3.80;2.28;;;10.20;23.20;;;;;;6283550;22;20189;-77
2021/04/12 11:03:56;;;;;;;6.95;2.00;;;10.00;21.70;;;;;;6290965;22;20169;-78
2021/04/12 11:06:34;;;;;;;6.15;1.90;;;9.80;23.70;;;;;;6161357;23;20168;-77
2021/04/12 11:09:18;;;;;;;1.83;1.70;;;9.50;25.40;;;;;;6159905;23;20214;-77
2021/04/12 11:11:54;;;;;;;3.88;1.90;;;9.60;25.10;;;;;;6162638;23;20196;-78
2021/04/12 11:14:27;;;;;;;3.45;2.25;;;8.90;26.70;;;;;;6168073;23;20196;-78
2021/04/12 11:17:01;;;;;;;4.63;2.58;;;8.90;26.60;;;;;;6172196;23;20168;-79
2021/04/12 11:19:36;;;;;;;3.25;2.00;;;8.80;26.10;;;;;;6166288;23;20172;-78
2021/04/12 11:22:16;;;;;;;1.67;1.58;;;8.80;25.80;;;;;;6164877;23;20187;-77
2021/04/12 11:24:56;;;;;;;2.00;1.90;;;9.00;25.80;;;;;;6159392;23;20246;-76
2021/04/12 11:28:10;;;;;;;2.97;2.13;;;9.30;25.20;;;;;;6156338;23;20191;-77
2021/04/12 11:30:48;;;;;;;3.08;2.17;;;10.00;23.30;;;;;;6158190;23;20235;-76
2021/04/12 11:33:40;;;;;;;3.80;2.22;;;10.40;23.90;;;;;;6156569;23;20164;-77
2021/04/12 11:36:14;;;;;;;2.05;1.85;;;10.00;24.20;;;;;;6162836;22;20168;-76
2021/04/12 11:38:49;;;;;;;4.25;1.90;;;9.80;25.40;;;;;;6282095;22;20352;-77
2021/04/12 11:41:21;;;;;;;2.47;1.80;;;9.50;23.80;;;;;;6280876;22;20192;-77
2021/04/12 11:43:50;;;;;;;2.25;1.98;;;9.30;24.40;;;;;;6279549;22;20161;-78
2021/04/12 11:46:28;;;;;;;2.25;1.80;;;9.20;24.50;;;;;;6280516;22;20236;-75
2021/04/12 11:49:03;;;;;;;4.57;2.20;;;9.10;24.40;;;;;;6286848;22;20157;-78
2021/04/12 11:51:41;;;;;;;3.05;1.52;;;9.30;24.30;;;;;;6288972;22;20200;-79
2021/04/12 11:54:13;;;;;;;10.45;2.53;;;9.60;23.90;;;;;;6286892;22;20174;-77
2021/04/12 11:56:53;;;;;;;3.13;1.90;;;9.70;23.50;;;;;;6296096;22;20185;-76
2021/04/12 11:59:41;;;;;;;4.45;2.03;;;10.00;22.20;;;;;;6282418;22;20211;-76
2021/04/12 12:02:16;;;;;;;3.13;1.90;;;9.80;23.00;;;;;;6286429;22;20588;-77
2021/04/12 12:04:46;;;;;;;1.77;1.67;;;9.80;23.50;;;;;;6298982;22;20161;-80
2021/04/12 12:07:29;;;;;;;2.42;1.90;;;9.80;23.50;;;;;;6298673;22;20185;-77
2021/04/12 12:10:09;;;;;;;3.60;1.90;;;9.60;23.80;;;;;;6286537;22;20200;-77
2021/04/12 12:12:42;;;;;;;6.55;2.28;;;9.60;23.70;;;;;;6281548;22;20567;-75
2021/04/12 12:15:20;;;;;;;5.03;2.10;;;9.90;22.90;;;;;;6291826;22;20165;-78
2021/04/12 12:18:03;;;;;;;1.88;1.65;;;9.80;22.90;;;;;;6291638;22;20166;-77
2021/04/12 12:20:39;;;;;;;4.78;2.25;;;9.70;22.30;;;;;;6290038;22;20201;-77
2021/04/12 12:23:18;;;;;;;1.60;1.45;;;9.80;22.30;;;;;;6288824;22;20166;-78
2021/04/12 12:25:47;;;;;;;2.13;1.63;;;9.80;22.30;;;;;;6292755;22;20683;-76
2021/04/12 12:28:24;;;;;;;3.95;2.30;;;9.80;22.60;;;;;;6282342;22;20188;-79
2021/04/12 12:30:57;;;;;;;1.92;1.70;;;10.40;22.00;;;;;;6280978;22;20197;-78
2021/04/12 12:33:32;;;;;;;2.05;1.60;;;10.80;21.40;;;;;;6280144;22;20292;-76
2021/04/12 12:36:07;;;;;;;1.98;1.60;;;10.20;21.80;;;;;;6278211;22;20190;-77
2021/04/12 12:38:52;;;;;;;3.00;2.03;;;10.40;22.50;;;;;;6280805;22;20242;-77
2021/04/12 12:41:21;;;;;;;2.30;2.03;;;10.60;19.80;;;;;;6280083;22;20645;-77
2021/04/12 12:43:53;;;;;;;2.25;1.70;;;10.60;19.50;;;;;;6282741;22;20177;-77
2021/04/12 12:46:24;;;;;;;2.20;1.73;;;10.70;19.80;;;;;;6285524;22;20165;-77
2021/04/12 12:48:56;;;;;;;2.40;1.60;;;10.80;19.40;;;;;;6283348;22;20166;-76
2021/04/12 12:51:28;;;;;;;3.00;2.08;;;10.50;19.30;;;;;;6280419;22;20220;-77
2021/04/12 12:54:03;;;;;;;1.65;1.55;;;10.40;19.60;;;;;;6281779;22;20170;-75
2021/04/12 12:56:34;;;;;;;2.35;1.80;;;10.50;19.40;;;;;;6282113;22;20165;-77
2021/04/12 12:59:06;;;;;;;2.08;1.45;;;10.60;19.60;;;;;;6282458;22;20208;-76
2021/04/12 13:01:35;;;;;;;2.40;1.30;;;10.30;20.70;;;;;;6280333;22;20200;-77
2021/04/12 13:04:14;;;;;;;2.17;1.52;;;10.10;21.00;;;;;;6279918;22;20363;-76
2021/04/12 13:06:42;;;;;;;1.33;1.33;;;10.00;20.70;;;;;;6289798;22;20184;-79
2021/04/12 13:09:26;;;;;;;1.73;1.63;;;10.00;21.70;;;;;;6298866;22;20169;-79
2021/04/12 13:11:54;;;;;;;4.57;1.60;;;10.00;21.70;;;;;;6300204;22;20204;-79
2021/04/12 13:14:35;;;;;;;2.60;1.50;;;10.10;21.10;;;;;;6297810;22;20177;-79
2021/04/12 13:17:16;;;;;;;4.03;1.90;;;9.80;22.30;;;;;;6282627;22;20173;-77
2021/04/12 13:52:49;;;;;;;4.18;2.15;;;11.30;19.80;;;;;;6272230;22;20192;-81
2021/04/12 13:55:24;;;;;;;1.83;1.73;;;11.40;20.40;;;;;;6272134;22;20166;-81
2021/04/12 13:57:55;;;;;;;2.00;1.77;;;11.70;20.50;;;;;;6271015;22;20172;-83
2021/04/12 14:00:28;;;;;;;5.10;1.40;;;11.60;19.70;;;;;;6271902;22;20181;-81
2021/04/12 14:03:01;;;;;;;2.75;1.55;;;11.20;19.80;;;;;;6272124;22;20162;-80
2021/04/12 14:05:31;;;;;;;1.60;1.50;;;10.60;20.00;;;;;;6274139;22;20181;-80
2021/04/12 14:08:12;;;;;;;1.40;1.30;;;10.60;20.50;;;;;;6274328;22;20186;-80
2021/04/12 14:10:49;;;;;;;2.15;1.23;;;10.50;20.10;;;;;;6274001;22;20174;-81
2021/04/12 14:13:20;;;;;;;1.63;1.52;;;10.70;19.90;;;;;;6274114;22;20150;-80
2021/04/12 14:15:53;;;;;;;1.58;1.48;;;10.70;20.40;;;;;;6274035;22;20217;-80
2021/04/12 14:18:33;;;;;;;2.20;1.60;;;10.70;20.20;;;;;;6274292;22;20162;-80
2021/04/12 14:21:16;;;;;;;1.20;1.10;;;10.30;19.50;;;;;;6274133;22;20190;-81
2021/04/12 14:23:50;;;;;;;2.60;1.20;;;10.00;21.70;;;;;;6274256;22;20162;-80
2021/04/12 14:26:24;;;;;;;1.42;1.33;;;9.70;23.70;;;;;;6273608;22;20165;-80
2021/04/12 14:28:54;;;;;;;4.13;1.60;;;9.20;24.80;;;;;;6273668;22;20188;-81
2021/04/12 14:31:27;;;;;;;2.88;1.55;;;9.10;25.00;;;;;;6274523;22;20198;-80
2021/04/12 14:34:02;;;;;;;1.92;1.30;;;8.90;25.30;;;;;;6306212;22;20161;-79
2021/04/12 14:36:32;;;;;;;3.13;1.40;;;8.90;25.80;;;;;;6306004;22;20183;-80
2021/04/12 14:39:15;;;;;;;2.50;1.58;;;8.90;26.40;;;;;;6305975;22;20229;-81
2021/04/12 14:41:48;;;;;;;1.42;1.33;;;8.60;28.10;;;;;;6305491;22;20169;-80
2021/04/12 14:44:23;;;;;;;1.90;1.70;;;8.60;27.40;;;;;;6305569;22;20179;-81
2021/04/12 14:46:59;;;;;;;2.08;1.20;;;9.10;26.80;;;;;;6305229;22;20168;-83
2021/04/12 14:49:32;;;;;;;1.23;1.13;;;9.50;26.40;;;;;;6304577;22;20200;-82
2021/04/12 16:22:20;;;;;;;3.20;1.60;;;9.60;25.40;;;;;;6058838;23;20161;-80
2021/04/12 18:30:19;;;;;;;1.92;1.80;;;6.70;32.30;;;;;;6262779;22;20204;-78
2021/04/12 18:32:49;;;;;;;2.15;1.70;;;6.70;32.80;;;;;;6306396;22;20218;-79
2021/04/12 18:35:23;;;;;;;2.40;1.88;;;6.60;32.50;;;;;;6307542;22;20611;-78
2021/04/12 18:37:57;;;;;;;3.13;2.10;;;6.60;32.40;;;;;;6312588;22;20239;-79
2021/04/12 18:40:33;;;;;;;4.68;2.38;;;6.60;32.70;;;;;;6304688;22;20197;-79
2021/04/12 19:09:04;;;;;;;3.00;2.75;;;6.50;37.50;;;;;;6245991;22;20196;-78
2021/04/12 19:11:41;;;;;;;4.60;2.90;;;6.60;36.70;;;;;;6311028;22;20184;-77
2021/04/12 19:14:22;;;;;;;2.85;2.65;;;6.70;37.70;;;;;;6309843;22;20164;-79
2021/04/12 19:16:58;;;;;;;3.50;3.05;;;6.80;37.10;;;;;;6308486;22;20532;-77